»·PEaware :: HAL12 KLAX-KDAL

HAL12 :: KLAX-KDAL

FLIGHT INFORMATION

Flight Status: Arrived
Operator:
Hawaiian Airlines
More flights by this operator :: More flights under this callsign
Pilot: Paul A. (28753)
Aircraft: AIRBUS A330
(A330)
More flights by this aircraft type
Origin: KLAX Los Angeles Intl
United States
Destination: KDAL Dallas Love
United States
More flights between these airports :: More routes between these airports
Route: DOTSS2 CLEEE PKE J74 SJN TXO TURKI JFRYE3
File this flight plan on PilotEdge
Remarks: RMK / SIMBRIEF
Altitude:
(Current/Filed)
39,000ft
Speed:
(Current/Filed)
455kts
Departed: 05-Apr-20 04:00 PM
Arrived: 05-Apr-20 06:30 PM
Distance/Time
Traveled:
1080nm/2:29
Distance/Time
To Go:
Arrived

Flight Plot

Page will automatically refresh every two minutes.

Flight plan parsing failed; only flown route is shown


Map Options




Map Legend


Flown Route
Filed Route
Departure Airport
Arrival Airport
Navaid (VOR, NDB)
Fix

Horizontal Profiles

Position Reports

Time Latitude Longitude Heading Altitude Ground
Speed
05-Apr-20 14:55 33.939871 -118.403776 309 138ft 0kts
05-Apr-20 14:56 33.939871 -118.403776 309 138ft 0kts
05-Apr-20 14:57 33.939871 -118.403776 309 138ft 0kts
05-Apr-20 14:58 33.939871 -118.403776 309 138ft 0kts
05-Apr-20 14:59 33.939871 -118.403776 309 138ft 0kts
05-Apr-20 15:00 33.939871 -118.403776 309 138ft 0kts
05-Apr-20 15:02 33.939871 -118.403776 309 138ft 0kts
05-Apr-20 15:03 33.939871 -118.403776 309 138ft 0kts
05-Apr-20 15:04 33.939871 -118.403776 309 138ft 0kts
05-Apr-20 15:05 33.939871 -118.403776 309 138ft 0kts
05-Apr-20 15:06 33.939871 -118.403776 309 138ft 0kts
05-Apr-20 15:07 33.939871 -118.403776 309 138ft 0kts
05-Apr-20 15:08 33.939871 -118.403776 309 138ft 0kts
05-Apr-20 15:09 33.939871 -118.403776 309 138ft 0kts
05-Apr-20 15:10 33.939871 -118.403776 309 138ft 0kts
05-Apr-20 15:11 33.939871 -118.403776 309 138ft 0kts
05-Apr-20 15:12 33.939871 -118.403776 309 138ft 0kts
05-Apr-20 15:13 33.939871 -118.403776 309 138ft 0kts
05-Apr-20 15:14 33.939871 -118.403776 309 138ft 0kts
05-Apr-20 15:15 33.939871 -118.403776 309 138ft 0kts
05-Apr-20 15:16 33.939871 -118.403776 309 138ft 0kts
05-Apr-20 15:17 33.939871 -118.403776 309 138ft 0kts
05-Apr-20 15:18 33.939871 -118.403776 309 138ft 0kts
05-Apr-20 15:18 33.939871 -118.403776 309 138ft 0kts
05-Apr-20 15:20 33.939871 -118.403776 309 138ft 0kts
05-Apr-20 15:21 33.939871 -118.403776 309 138ft 0kts
05-Apr-20 15:21 33.939871 -118.403776 309 138ft 0kts
05-Apr-20 15:22 33.939871 -118.403776 309 138ft 0kts
05-Apr-20 15:24 33.939871 -118.403776 309 138ft 0kts
05-Apr-20 15:24 33.939871 -118.403776 309 138ft 0kts
05-Apr-20 15:25 33.939871 -118.403776 309 138ft 0kts
05-Apr-20 15:27 33.939871 -118.403776 309 138ft 0kts
05-Apr-20 15:27 33.939871 -118.403776 309 138ft 0kts
05-Apr-20 15:28 33.939871 -118.403776 309 138ft 0kts
05-Apr-20 15:29 33.939871 -118.403776 309 138ft 0kts
05-Apr-20 15:30 33.939871 -118.403776 309 138ft 0kts
05-Apr-20 15:31 33.939871 -118.403776 309 138ft 0kts
05-Apr-20 15:32 33.939871 -118.403776 309 138ft 0kts
05-Apr-20 15:33 33.939871 -118.403776 309 138ft 0kts
05-Apr-20 15:34 33.939871 -118.403776 309 138ft 0kts
05-Apr-20 15:35 33.939871 -118.403776 309 138ft 0kts
05-Apr-20 15:36 33.939871 -118.403776 309 138ft 0kts
05-Apr-20 15:37 33.939871 -118.403776 309 138ft 0kts
05-Apr-20 15:38 33.939871 -118.403776 309 138ft 0kts
05-Apr-20 15:39 33.939871 -118.403776 309 138ft 0kts
05-Apr-20 15:40 33.939871 -118.403776 309 138ft 0kts
05-Apr-20 15:41 33.939871 -118.403776 309 138ft 0kts
05-Apr-20 15:42 33.939871 -118.403776 309 138ft 0kts
05-Apr-20 15:43 33.939868 -118.403773 309 138ft 0kts
05-Apr-20 15:44 33.939884 -118.403165 212 138ft 2kts
05-Apr-20 15:45 33.940115 -118.403108 173 138ft 0kts
05-Apr-20 15:46 33.940115 -118.403108 173 138ft 0kts
05-Apr-20 15:47 33.940115 -118.403108 173 138ft 0kts
05-Apr-20 15:48 33.940115 -118.403108 173 138ft 0kts
05-Apr-20 15:49 33.939595 -118.403036 173 138ft 4kts
05-Apr-20 15:50 33.938587 -118.402333 92 138ft 6kts
05-Apr-20 15:51 33.938798 -118.399837 82 138ft 12kts
05-Apr-20 15:52 33.939248 -118.395526 83 138ft 18kts
05-Apr-20 15:53 33.939758 -118.390544 83 138ft 11kts
05-Apr-20 15:54 33.940128 -118.386856 83 138ft 17kts
05-Apr-20 15:55 33.940401 -118.384255 82 138ft 0kts
05-Apr-20 15:56 33.940401 -118.384255 82 138ft 0kts
05-Apr-20 15:57 33.940401 -118.384255 82 138ft 0kts
05-Apr-20 15:58 33.940420 -118.384038 87 138ft 10kts
05-Apr-20 15:59 33.939246 -118.385816 262 138ft 55kts
05-Apr-20 16:00 33.934858 -118.425777 259 1668ft 154kts
05-Apr-20 16:01 33.924947 -118.488086 249 4664ft 164kts
05-Apr-20 16:02 33.869839 -118.548608 218 4984ft 250kts
05-Apr-20 16:03 33.784879 -118.543907 171 4990ft 257kts
05-Apr-20 16:04 33.700115 -118.513855 133 4998ft 268kts
05-Apr-20 16:05 33.666833 -118.417966 114 7902ft 286kts
05-Apr-20 16:06 33.643615 -118.321040 92 10552ft 332kts
05-Apr-20 16:07 33.644505 -118.201279 94 13062ft 373kts
05-Apr-20 16:08 33.644538 -118.073429 94 15971ft 394kts
05-Apr-20 16:09 33.644424 -117.940200 95 18625ft 414kts
05-Apr-20 16:10 33.644436 -117.800540 91 21059ft 435kts
05-Apr-20 16:11 33.671382 -117.654282 81 23276ft 460kts
05-Apr-20 16:12 33.699610 -117.507412 81 22962ft 458kts
05-Apr-20 16:13 33.727170 -117.362355 80 22941ft 456kts
05-Apr-20 16:14 33.751130 -117.213784 96 23257ft 455kts
05-Apr-20 16:15 33.747810 -117.060612 97 25437ft 467kts
05-Apr-20 16:16 33.744466 -116.901860 97 27242ft 483kts
05-Apr-20 16:17 33.740794 -116.737748 97 28853ft 499kts
05-Apr-20 16:18 33.736796 -116.569005 97 30315ft 513kts
05-Apr-20 16:19 33.732470 -116.396383 97 32046ft 516kts
05-Apr-20 16:20 33.727558 -116.224713 98 33709ft 514kts
05-Apr-20 16:21 33.728735 -116.053327 79 35053ft 527kts
05-Apr-20 16:22 33.775468 -115.885966 75 36361ft 526kts
05-Apr-20 16:23 33.821610 -115.719212 75 37335ft 527kts
05-Apr-20 16:24 33.867427 -115.552675 75 38242ft 526kts
05-Apr-20 16:25 33.912957 -115.386166 75 38786ft 525kts
05-Apr-20 16:26 33.958132 -115.218169 76 38809ft 524kts
05-Apr-20 16:27 34.003143 -115.051529 75 38814ft 522kts
05-Apr-20 16:28 34.047637 -114.885748 75 38816ft 520kts
05-Apr-20 16:29 34.091950 -114.719844 75 38808ft 519kts
05-Apr-20 16:30 34.112817 -114.549689 89 38794ft 514kts
05-Apr-20 16:31 34.126373 -114.379253 88 38799ft 513kts
05-Apr-20 16:32 34.139233 -114.208690 90 38797ft 510kts
05-Apr-20 16:33 34.152287 -114.037873 89 38801ft 511kts
05-Apr-20 16:34 34.165206 -113.866827 90 38797ft 511kts
05-Apr-20 16:35 34.177914 -113.695703 90 38797ft 511kts
05-Apr-20 16:36 34.190323 -113.525328 90 38800ft 510kts
05-Apr-20 16:37 34.202509 -113.354168 89 38895ft 511kts
05-Apr-20 16:38 34.213982 -113.183406 90 38943ft 510kts
05-Apr-20 16:39 34.225648 -113.012931 90 38955ft 511kts
05-Apr-20 16:40 34.237186 -112.840087 91 38967ft 523kts
05-Apr-20 16:41 34.248754 -112.664149 91 38964ft 523kts
05-Apr-20 16:42 34.259993 -112.488690 91 38969ft 523kts
05-Apr-20 16:43 34.270928 -112.312968 92 38957ft 524kts
05-Apr-20 16:44 34.281286 -112.137468 91 38958ft 525kts
05-Apr-20 16:45 34.291815 -111.961513 92 38970ft 524kts
05-Apr-20 16:46 34.302066 -111.785954 91 38978ft 524kts
05-Apr-20 16:47 34.312023 -111.610359 91 38992ft 524kts
05-Apr-20 16:48 34.321737 -111.434366 92 38995ft 523kts
05-Apr-20 16:49 34.330818 -111.259041 92 38988ft 522kts
05-Apr-20 16:50 34.339957 -111.084039 92 38984ft 523kts
05-Apr-20 16:51 34.348986 -110.906701 92 38988ft 533kts
05-Apr-20 16:52 34.357851 -110.727175 92 38999ft 532kts
05-Apr-20 16:53 34.366423 -110.548327 92 39003ft 533kts
05-Apr-20 16:54 34.374795 -110.369028 92 39006ft 533kts
05-Apr-20 16:55 34.382441 -110.190521 93 39004ft 533kts
05-Apr-20 16:56 34.390272 -110.011259 93 39019ft 534kts
05-Apr-20 16:57 34.397807 -109.832700 93 39008ft 532kts
05-Apr-20 16:58 34.405086 -109.653579 93 38963ft 531kts
05-Apr-20 16:59 34.412111 -109.474425 93 38965ft 533kts
05-Apr-20 17:00 34.418627 -109.295454 94 38964ft 531kts
05-Apr-20 17:01 34.424979 -109.117187 93 38960ft 532kts
05-Apr-20 17:02 34.431445 -108.939026 93 38963ft 528kts
05-Apr-20 17:03 34.437694 -108.761037 93 39012ft 529kts
05-Apr-20 17:04 34.443682 -108.583133 93 39027ft 529kts
05-Apr-20 17:05 34.449406 -108.405354 93 39015ft 529kts
05-Apr-20 17:06 34.454332 -108.229974 93 38981ft 529kts
05-Apr-20 17:07 34.459509 -108.051982 93 38976ft 527kts
05-Apr-20 17:08 34.464451 -107.874346 93 38982ft 528kts
05-Apr-20 17:09 34.469149 -107.696715 93 38979ft 527kts
05-Apr-20 17:10 34.473576 -107.518968 93 38961ft 528kts
05-Apr-20 17:12 34.477756 -107.341208 94 38944ft 528kts
05-Apr-20 17:13 34.481171 -107.164238 94 38937ft 528kts
05-Apr-20 17:14 34.484767 -106.986690 94 38935ft 528kts
05-Apr-20 17:15 34.488259 -106.806085 94 38935ft 540kts
05-Apr-20 17:16 34.491495 -106.623813 94 38941ft 539kts
05-Apr-20 17:17 34.494445 -106.441726 94 38940ft 541kts
05-Apr-20 17:18 34.496686 -106.260036 95 38938ft 538kts
05-Apr-20 17:19 34.499008 -106.081788 95 38938ft 539kts
05-Apr-20 17:20 34.501109 -105.900548 94 38971ft 541kts
05-Apr-20 17:21 34.502973 -105.718714 95 38976ft 539kts
05-Apr-20 17:22 34.504554 -105.537027 95 38961ft 539kts
05-Apr-20 17:23 34.505856 -105.355694 95 38921ft 539kts
05-Apr-20 17:24 34.506484 -105.174459 95 38922ft 537kts
05-Apr-20 17:25 34.507248 -104.992697 94 38919ft 541kts
05-Apr-20 17:26 34.507759 -104.809676 94 38915ft 543kts
05-Apr-20 17:27 34.508028 -104.626982 94 38920ft 543kts
05-Apr-20 17:27 34.508029 -104.474479 94 38918ft 543kts
05-Apr-20 17:29 34.507309 -104.261093 95 38919ft 541kts
05-Apr-20 17:30 34.506707 -104.078785 95 38928ft 542kts
05-Apr-20 17:30 34.506004 -103.926649 95 38947ft 543kts
05-Apr-20 17:31 34.504909 -103.743900 95 38954ft 542kts
05-Apr-20 17:33 34.503357 -103.530805 95 38944ft 543kts
05-Apr-20 17:33 34.501981 -103.378677 95 38949ft 540kts
05-Apr-20 17:34 34.499672 -103.196791 95 38944ft 541kts
05-Apr-20 17:35 34.497495 -103.013940 95 38950ft 545kts
05-Apr-20 17:36 34.494420 -102.829812 99 38949ft 545kts
05-Apr-20 17:37 34.475727 -102.649085 101 38964ft 542kts
05-Apr-20 17:38 34.456922 -102.467648 101 38985ft 541kts
05-Apr-20 17:39 34.437621 -102.286675 103 38967ft 540kts
05-Apr-20 17:40 34.418222 -102.106274 103 38981ft 541kts
05-Apr-20 17:41 34.398725 -101.926172 102 38994ft 540kts
05-Apr-20 17:42 34.378936 -101.745803 103 38999ft 540kts
05-Apr-20 17:43 34.358925 -101.565633 102 39008ft 541kts
05-Apr-20 17:44 34.338703 -101.386402 103 39009ft 539kts
05-Apr-20 17:45 34.317796 -101.206485 103 38994ft 538kts
05-Apr-20 17:46 34.297014 -101.027126 103 38992ft 538kts
05-Apr-20 17:47 34.275859 -100.846876 103 39011ft 543kts
05-Apr-20 17:48 34.254445 -100.666454 102 39020ft 542kts
05-Apr-20 17:49 34.233683 -100.493783 102 39023ft 542kts
05-Apr-20 17:50 34.211523 -100.313183 104 39011ft 541kts
05-Apr-20 17:51 34.182947 -100.135609 107 39009ft 539kts
05-Apr-20 17:52 34.151332 -99.958979 107 39013ft 538kts
05-Apr-20 17:53 34.119490 -99.782691 108 39016ft 538kts
05-Apr-20 17:54 34.087405 -99.606627 108 39014ft 538kts
05-Apr-20 17:55 34.054810 -99.429470 107 37576ft 547kts
05-Apr-20 17:56 34.020848 -99.249977 111 34672ft 550kts
05-Apr-20 17:57 33.968580 -99.082342 118 32425ft 530kts
05-Apr-20 17:58 33.917185 -98.918581 117 30258ft 519kts
05-Apr-20 17:59 33.868256 -98.763731 117 28183ft 466kts
05-Apr-20 18:00 33.822745 -98.620302 116 26302ft 452kts
05-Apr-20 18:01 33.778570 -98.481703 116 24376ft 439kts
05-Apr-20 18:02 33.736599 -98.349387 116 22558ft 422kts
05-Apr-20 18:03 33.694731 -98.219378 116 20637ft 405kts
05-Apr-20 18:04 33.654982 -98.095441 115 18862ft 390kts
05-Apr-20 18:05 33.616663 -97.976326 115 17182ft 376kts
05-Apr-20 18:06 33.579544 -97.861390 114 15569ft 364kts
05-Apr-20 18:07 33.543579 -97.750453 113 14001ft 352kts
05-Apr-20 18:08 33.508461 -97.642524 113 12469ft 341kts
05-Apr-20 18:09 33.474555 -97.538725 112 10997ft 331kts
05-Apr-20 18:10 33.449663 -97.438038 92 9857ft 294kts
05-Apr-20 18:11 33.446215 -97.340516 94 9310ft 290kts
05-Apr-20 18:12 33.442216 -97.244035 94 8811ft 288kts
05-Apr-20 18:13 33.438511 -97.148643 94 8006ft 284kts
05-Apr-20 18:14 33.434820 -97.054520 94 7503ft 282kts
05-Apr-20 18:15 33.431106 -96.961556 94 6636ft 276kts
05-Apr-20 18:16 33.409802 -96.876235 120 6209ft 270kts
05-Apr-20 18:17 33.346149 -96.861873 196 5610ft 263kts
05-Apr-20 18:18 33.279468 -96.892817 202 5071ft 263kts
05-Apr-20 18:19 33.221315 -96.923524 202 4597ft 262kts
05-Apr-20 18:20 33.165946 -96.953313 203 4149ft 261kts
05-Apr-20 18:21 33.111892 -96.982471 203 3722ft 260kts
05-Apr-20 18:22 33.052937 -97.014236 203 3280ft 257kts
05-Apr-20 18:23 32.991321 -97.006925 146 2768ft 179kts
05-Apr-20 18:24 32.959978 -96.975429 138 1896ft 123kts
05-Apr-20 18:25 32.934248 -96.945941 137 1870ft 130kts
05-Apr-20 18:26 32.908442 -96.916016 137 1875ft 129kts
05-Apr-20 18:27 32.882451 -96.886048 136 1223ft 129kts
05-Apr-20 18:28 32.856773 -96.856238 136 547ft 128kts
05-Apr-20 18:29 32.842907 -96.840156 135 498ft 17kts
05-Apr-20 18:30 32.841158 -96.840449 244 498ft 15kts
05-Apr-20 18:31 32.843497 -96.843966 315 498ft 21kts
05-Apr-20 18:32 32.847242 -96.847902 297 498ft 14kts
05-Apr-20 18:33 32.847408 -96.849640 247 498ft 6kts
05-Apr-20 18:34 32.847024 -96.849890 178 498ft 3kts
05-Apr-20 18:35 32.846560 -96.849888 179 498ft 0kts
05-Apr-20 18:36 32.846560 -96.849888 179 498ft 0kts
05-Apr-20 18:37 32.846560 -96.849888 179 498ft 0kts
05-Apr-20 18:38 32.846560 -96.849888 179 498ft 0kts
05-Apr-20 18:39 32.846560 -96.849888 179 498ft 0kts
05-Apr-20 18:40 32.846560 -96.849888 179 498ft 0kts
05-Apr-20 18:41 32.846560 -96.849888 179 498ft 0kts
05-Apr-20 18:42 32.846560 -96.849888 179 498ft 0kts
05-Apr-20 18:43 32.846560 -96.849888 179 498ft 0kts

Navigation Log

Ident Type
Flight plan parsing failed, navigation log unavailable